createdAt,value
2022-08-16T00:01:33.997Z,38.54
2022-08-16T00:03:37.585Z,38.37
2022-08-16T00:05:48.500Z,38.46
2022-08-16T00:07:56.076Z,38.84
2022-08-16T00:09:59.428Z,38.45
2022-08-16T00:12:01.859Z,38.94
2022-08-16T00:14:08.727Z,38.76
2022-08-16T00:17:01.350Z,38.96
2022-08-16T00:18:32.981Z,38.70
2022-08-16T00:20:35.079Z,38.58
2022-08-16T00:22:39.109Z,39.09
2022-08-16T00:24:46.834Z,38.65
2022-08-16T00:26:49.565Z,38.70
2022-08-16T00:28:54.869Z,38.93
2022-08-16T00:30:59.272Z,39.01
2022-08-16T00:33:03.081Z,39.17
2022-08-16T00:35:15.154Z,38.97
2022-08-16T00:37:20.294Z,39.25
2022-08-16T00:39:22.374Z,38.93
2022-08-16T00:41:24.673Z,39.30
2022-08-16T00:43:42.617Z,39.09
2022-08-16T00:46:00.597Z,39.31
2022-08-16T00:48:30.781Z,39.49
2022-08-16T00:50:35.828Z,39.48
2022-08-16T00:52:51.318Z,39.13
2022-08-16T00:54:53.568Z,39.60
2022-08-16T00:57:00.005Z,39.66
2022-08-16T00:59:02.860Z,39.58
2022-08-16T01:01:07.999Z,39.71
2022-08-16T01:03:12.799Z,39.26
2022-08-16T01:05:14.788Z,39.75
2022-08-16T01:07:18.319Z,39.91
2022-08-16T01:09:20.822Z,40.08
2022-08-16T01:11:25.849Z,39.88
2022-08-16T01:13:31.566Z,39.92
2022-08-16T01:15:37.705Z,40.14
2022-08-16T01:17:47.479Z,40.20
2022-08-16T01:20:02.601Z,40.31
2022-08-16T01:22:48.448Z,40.18
2022-08-16T01:25:04.189Z,40.34
2022-08-16T01:27:12.273Z,40.47
2022-08-16T01:29:56.791Z,40.39
2022-08-16T01:31:48.648Z,40.66
2022-08-16T01:33:53.861Z,40.36
2022-08-16T01:36:11.766Z,40.49
2022-08-16T01:38:25.742Z,40.56
2022-08-16T01:40:31.123Z,40.73
2022-08-16T01:42:33.565Z,40.83
2022-08-16T01:44:38.259Z,40.74
2022-08-16T01:46:47.566Z,40.93
2022-08-16T01:48:57.160Z,40.98
2022-08-16T01:51:09.052Z,40.99
2022-08-16T01:53:18.994Z,41.02
2022-08-16T01:55:41.377Z,41.22
2022-08-16T01:57:53.169Z,41.25
2022-08-16T01:59:58.072Z,41.10
2022-08-16T02:02:00.993Z,41.50
2022-08-16T02:04:11.326Z,41.41
2022-08-16T02:06:15.603Z,41.47
2022-08-16T02:08:35.714Z,41.58
2022-08-16T02:10:38.497Z,41.54
2022-08-16T02:12:51.915Z,41.57
2022-08-16T02:14:55.310Z,41.95
2022-08-16T02:16:59.492Z,41.67
2022-08-16T02:19:02.525Z,41.89
2022-08-16T02:21:31.233Z,41.90
2022-08-16T02:23:36.394Z,42.14
2022-08-16T02:25:52.516Z,41.85
2022-08-16T02:27:58.866Z,41.80
2022-08-16T02:30:04.986Z,42.29
2022-08-16T02:32:49.211Z,42.59
2022-08-16T02:34:32.978Z,42.55
2022-08-16T02:36:49.666Z,42.59
2022-08-16T02:38:53.434Z,42.74
2022-08-16T02:40:57.727Z,42.95
2022-08-16T02:43:00.914Z,43.21
2022-08-16T02:45:05.740Z,43.13
2022-08-16T02:47:09.307Z,43.27
2022-08-16T02:49:12.298Z,43.32
2022-08-16T02:51:16.347Z,43.66
2022-08-16T02:53:23.374Z,43.71
2022-08-16T02:55:40.973Z,43.54
2022-08-16T02:57:54.286Z,43.83
2022-08-16T02:59:56.591Z,43.59
2022-08-16T03:01:58.300Z,43.78
2022-08-16T03:04:46.323Z,43.70
2022-08-16T03:06:41.524Z,44.06
2022-08-16T03:09:13.850Z,44.04
2022-08-16T03:11:22.497Z,44.40
2022-08-16T03:13:24.282Z,44.40
2022-08-16T03:15:27.740Z,44.30
2022-08-16T03:17:32.480Z,44.20
2022-08-16T03:19:47.551Z,44.33
2022-08-16T03:21:58.582Z,44.52
2022-08-16T03:24:00.937Z,44.49
2022-08-16T03:26:03.013Z,44.84
2022-08-16T03:28:07.599Z,44.75
2022-08-16T03:30:18.302Z,44.93
2022-08-16T03:32:26.146Z,45.01
2022-08-16T03:34:29.428Z,44.91
2022-08-16T03:36:32.892Z,44.74
2022-08-16T03:38:38.966Z,44.67
2022-08-16T03:40:47.368Z,44.71
2022-08-16T03:43:18.892Z,44.93
2022-08-16T03:45:14.444Z,44.76
2022-08-16T03:47:19.830Z,44.88
2022-08-16T03:49:36.709Z,45.31
2022-08-16T03:51:42.354Z,44.97
2022-08-16T03:54:00.870Z,45.08
2022-08-16T03:56:08.005Z,45.37
2022-08-16T03:58:22.626Z,45.14
2022-08-16T04:00:35.941Z,45.47
2022-08-16T04:02:45.770Z,45.10
2022-08-16T04:04:53.878Z,45.39
2022-08-16T04:06:56.312Z,45.47
2022-08-16T04:08:59.358Z,45.72
2022-08-16T04:11:03.916Z,45.54
2022-08-16T04:13:20.333Z,45.82
2022-08-16T04:15:23.040Z,45.67
2022-08-16T04:17:44.206Z,45.62
2022-08-16T04:19:46.588Z,45.97
2022-08-16T04:21:50.913Z,45.81
2022-08-16T04:24:01.073Z,45.88
2022-08-16T04:26:02.626Z,46.09
2022-08-16T04:28:54.686Z,46.02
2022-08-16T04:30:31.909Z,46.05
2022-08-16T04:32:38.804Z,46.24
2022-08-16T04:34:45.987Z,46.16
2022-08-16T04:36:48.921Z,46.29
2022-08-16T04:38:52.470Z,46.04
2022-08-16T04:40:54.526Z,46.22
2022-08-16T04:42:56.875Z,46.20
2022-08-16T04:45:02.022Z,46.46
2022-08-16T04:47:21.190Z,46.10
2022-08-16T04:49:26.813Z,46.26
2022-08-16T04:51:41.287Z,46.55
2022-08-16T04:53:43.343Z,46.46
2022-08-16T04:55:45.138Z,46.54
2022-08-16T04:57:53.342Z,46.47
2022-08-16T04:59:56.828Z,46.47
2022-08-16T05:01:59.511Z,46.23
2022-08-16T05:04:02.106Z,46.59
2022-08-16T05:06:10.655Z,46.39
2022-08-16T05:08:28.870Z,46.21
2022-08-16T05:10:37.793Z,46.95
2022-08-16T05:12:41.369Z,46.51
2022-08-16T05:15:01.817Z,46.53
2022-08-16T05:17:05.698Z,46.56
2022-08-16T05:19:11.588Z,46.64
2022-08-16T05:21:38.066Z,46.97
2022-08-16T05:23:41.144Z,46.46
2022-08-16T05:25:48.305Z,46.30
2022-08-16T05:27:51.722Z,46.56
2022-08-16T05:30:01.017Z,46.68
2022-08-16T05:32:11.049Z,46.43
2022-08-16T05:34:29.669Z,46.08
2022-08-16T05:36:33.961Z,46.42
2022-08-16T05:38:39.282Z,46.41
2022-08-16T05:40:57.339Z,46.41
2022-08-16T05:43:03.564Z,46.81
2022-08-16T05:45:07.763Z,46.89
2022-08-16T05:47:11.088Z,46.55
2022-08-16T05:49:22.480Z,46.58
2022-08-16T05:51:39.090Z,46.41
2022-08-16T05:53:42.569Z,46.53
2022-08-16T05:55:47.846Z,46.62
2022-08-16T05:57:52.357Z,46.59
2022-08-16T05:59:59.623Z,46.49
2022-08-16T06:02:13.929Z,46.61
2022-08-16T06:04:36.703Z,46.84
2022-08-16T06:06:55.877Z,46.76
2022-08-16T06:08:59.790Z,47.26
2022-08-16T06:11:10.519Z,46.91
2022-08-16T06:13:15.491Z,46.85
2022-08-16T06:15:21.173Z,47.09
2022-08-16T06:17:23.209Z,47.08
2022-08-16T06:19:25.456Z,47.04
2022-08-16T06:21:37.105Z,47.08
2022-08-16T06:23:40.639Z,47.00
2022-08-16T06:25:52.222Z,47.04
2022-08-16T06:27:58.393Z,47.29
2022-08-16T06:30:11.243Z,47.40
2022-08-16T06:32:27.863Z,47.10
2022-08-16T06:34:55.222Z,46.88
2022-08-16T06:36:59.574Z,46.77
2022-08-16T06:39:06.141Z,46.59
2022-08-16T06:41:28.263Z,46.65
2022-08-16T06:43:44.469Z,46.39
2022-08-16T06:45:51.324Z,46.39
2022-08-16T06:47:56.624Z,46.28
2022-08-16T06:50:02.978Z,46.03
2022-08-16T06:52:57.350Z,45.74
2022-08-16T06:54:36.084Z,45.99
2022-08-16T06:56:37.807Z,45.50
2022-08-16T06:58:42.817Z,45.41
2022-08-16T07:00:49.906Z,45.67
2022-08-16T07:02:56.564Z,45.32
2022-08-16T07:04:58.238Z,45.03
2022-08-16T07:07:00.150Z,45.16
2022-08-16T07:09:01.979Z,45.38
2022-08-16T07:11:13.620Z,44.95
2022-08-16T07:13:43.928Z,45.21
2022-08-16T07:15:49.974Z,44.83
2022-08-16T07:17:57.430Z,44.58
2022-08-16T07:20:29.768Z,44.62
2022-08-16T07:22:38.662Z,44.11
2022-08-16T07:24:46.381Z,44.13
2022-08-16T07:26:48.668Z,43.84
2022-08-16T07:28:52.201Z,44.21
2022-08-16T07:30:54.178Z,43.95
2022-08-16T07:33:10.677Z,43.63
2022-08-16T07:35:18.758Z,43.46
2022-08-16T07:37:23.182Z,43.77
2022-08-16T07:39:43.340Z,43.46
2022-08-16T07:41:45.440Z,43.61
2022-08-16T07:43:48.688Z,43.48
2022-08-16T07:45:53.452Z,43.62
2022-08-16T07:47:55.619Z,43.31
2022-08-16T07:49:58.984Z,43.09
2022-08-16T07:52:01.830Z,43.37
2022-08-16T07:54:37.776Z,42.87
2022-08-16T07:56:44.786Z,42.95
2022-08-16T07:58:46.884Z,42.76
2022-08-16T08:00:58.300Z,42.64
2022-08-16T08:03:02.663Z,42.73
2022-08-16T08:05:06.353Z,42.54
2022-08-16T08:07:09.163Z,42.37
2022-08-16T08:09:12.856Z,42.22
2022-08-16T08:11:14.409Z,42.29
2022-08-16T08:13:20.325Z,42.13
2022-08-16T08:15:52.583Z,41.67
2022-08-16T08:17:55.846Z,41.92
2022-08-16T08:20:09.686Z,41.60
2022-08-16T08:22:19.473Z,41.41
2022-08-16T08:24:31.486Z,41.31
2022-08-16T08:26:34.996Z,41.37
2022-08-16T08:28:36.737Z,41.14
2022-08-16T08:30:51.359Z,40.95
2022-08-16T08:33:00.716Z,41.36
2022-08-16T08:35:12.562Z,40.95
2022-08-16T08:37:15.103Z,40.47
2022-08-16T08:39:21.008Z,40.48
2022-08-16T08:41:29.241Z,40.86
2022-08-16T08:43:41.363Z,40.12
2022-08-16T08:45:48.878Z,39.81
2022-08-16T08:47:58.583Z,39.92
2022-08-16T08:50:05.212Z,39.54
2022-08-16T08:52:07.967Z,39.83
2022-08-16T08:54:10.730Z,39.85
2022-08-16T08:56:23.381Z,39.26
2022-08-16T08:58:34.988Z,39.31
2022-08-16T09:00:51.621Z,39.15
2022-08-16T09:02:54.983Z,38.68
2022-08-16T09:04:58.500Z,39.04
2022-08-16T09:07:01.294Z,38.83
2022-08-16T09:09:06.699Z,38.43
2022-08-16T09:11:08.559Z,37.75
2022-08-16T09:13:14.411Z,37.56
2022-08-16T09:15:21.820Z,37.38
2022-08-16T09:17:47.150Z,37.34
2022-08-16T09:19:49.368Z,37.07
2022-08-16T09:21:56.378Z,36.74
2022-08-16T09:23:58.361Z,37.04
2022-08-16T09:26:00.479Z,36.60
2022-08-16T09:28:09.221Z,36.30
2022-08-16T09:30:33.444Z,36.65
2022-08-16T09:32:37.666Z,36.36
2022-08-16T09:34:39.260Z,36.58
2022-08-16T09:36:45.957Z,36.89
2022-08-16T09:38:48.348Z,36.68
2022-08-16T09:40:53.270Z,36.73
2022-08-16T09:42:59.304Z,36.79
2022-08-16T09:45:12.620Z,37.44
2022-08-16T09:47:23.505Z,37.14
2022-08-16T09:49:26.311Z,37.24
2022-08-16T09:51:39.220Z,37.80
2022-08-16T09:53:41.835Z,37.20
2022-08-16T09:55:49.294Z,37.65
2022-08-16T09:57:52.898Z,37.14
2022-08-16T09:59:56.238Z,37.05
2022-08-16T10:01:59.780Z,36.96
2022-08-16T10:04:04.132Z,36.70
2022-08-16T10:06:07.590Z,36.93
2022-08-16T10:08:25.382Z,36.52
2022-08-16T10:10:31.057Z,36.41
2022-08-16T10:12:55.399Z,36.33
2022-08-16T10:14:57.605Z,35.81
2022-08-16T10:17:04.994Z,35.52
2022-08-16T10:19:07.602Z,35.52
2022-08-16T10:21:10.537Z,35.07
2022-08-16T10:23:17.198Z,34.60
2022-08-16T10:27:19.943Z,34.74
2022-08-16T10:27:56.942Z,34.54
2022-08-16T10:30:24.704Z,34.39
2022-08-16T10:32:27.450Z,34.21
2022-08-16T10:34:32.814Z,34.49
2022-08-16T10:36:38.656Z,34.20
2022-08-16T10:38:42.124Z,33.94
2022-08-16T10:40:45.425Z,34.24
2022-08-16T10:42:49.575Z,34.04
2022-08-16T10:44:53.769Z,33.90
2022-08-16T10:46:56.788Z,34.12
2022-08-16T10:48:58.435Z,33.92
2022-08-16T10:51:02.856Z,33.49
2022-08-16T10:53:07.867Z,33.95
2022-08-16T10:57:33.380Z,33.69
2022-08-16T10:59:43.908Z,33.86
2022-08-16T11:06:38.342Z,34.28
2022-08-16T11:08:45.466Z,34.01
2022-08-16T11:11:06.862Z,34.47
2022-08-16T11:15:35.888Z,34.55
2022-08-16T11:17:44.933Z,34.18
2022-08-16T11:20:42.313Z,34.41
2022-08-16T11:22:38.944Z,34.47
2022-08-16T11:24:41.772Z,34.36
2022-08-16T11:26:45.527Z,34.22
2022-08-16T11:29:15.270Z,34.33
2022-08-16T11:31:20.060Z,34.20
2022-08-16T11:33:52.023Z,33.94
2022-08-16T11:36:22.166Z,33.39
2022-08-16T11:38:47.195Z,33.00
2022-08-16T11:40:57.334Z,32.69
2022-08-16T11:43:04.090Z,32.81
2022-08-16T11:45:07.258Z,32.83
2022-08-16T11:47:09.473Z,32.67
2022-08-16T11:49:13.700Z,32.28
2022-08-16T11:51:15.804Z,32.01
2022-08-16T11:53:18.747Z,31.98
2022-08-16T11:55:20.344Z,32.08
2022-08-16T11:57:25.363Z,32.07
2022-08-16T11:59:29.305Z,31.81
2022-08-16T12:01:54.695Z,32.22
2022-08-16T12:03:52.626Z,32.03
2022-08-16T12:05:54.740Z,32.37
2022-08-16T12:07:56.994Z,32.40
2022-08-16T12:10:06.356Z,32.37
2022-08-16T12:12:10.006Z,32.43
2022-08-16T12:14:11.681Z,32.36
2022-08-16T12:16:17.461Z,32.20
2022-08-16T12:18:22.430Z,31.99
2022-08-16T12:20:27.903Z,31.90
2022-08-16T12:22:31.839Z,32.26
2022-08-16T12:24:38.877Z,32.27
2022-08-16T12:26:40.533Z,32.54
2022-08-16T12:28:54.583Z,32.47
2022-08-16T12:30:57.942Z,32.49
2022-08-16T12:33:02.907Z,32.36
2022-08-16T12:35:07.594Z,32.19
2022-08-16T12:37:11.773Z,32.28
2022-08-16T12:39:15.092Z,31.92
2022-08-16T12:41:24.670Z,32.00
2022-08-16T12:43:31.142Z,31.80
2022-08-16T12:45:38.098Z,31.92
2022-08-16T12:48:29.713Z,31.31
2022-08-16T12:50:20.350Z,31.34
2022-08-16T12:52:32.895Z,30.56
2022-08-16T12:54:37.335Z,30.65
2022-08-16T12:56:41.459Z,30.34
2022-08-16T12:58:49.201Z,30.45
2022-08-16T13:00:52.355Z,30.65
2022-08-16T13:02:54.465Z,30.47
2022-08-16T13:04:56.219Z,30.27
2022-08-16T13:06:59.169Z,30.03
2022-08-16T13:09:02.449Z,30.12
2022-08-16T13:11:07.609Z,30.11
2022-08-16T13:13:10.167Z,30.05
2022-08-16T13:15:15.677Z,30.09
2022-08-16T13:17:26.496Z,30.42
2022-08-16T13:19:49.832Z,30.24
2022-08-16T13:21:53.326Z,30.46
2022-08-16T13:23:55.705Z,30.27
2022-08-16T13:25:57.836Z,30.43
2022-08-16T13:28:02.033Z,30.10
2022-08-16T13:30:11.320Z,29.94
2022-08-16T13:32:40.578Z,30.07
2022-08-16T13:34:42.762Z,29.48
2022-08-16T13:36:51.917Z,29.67
2022-08-16T13:38:57.557Z,29.27
2022-08-16T13:41:02.296Z,29.34
2022-08-16T13:43:04.010Z,29.20
2022-08-16T13:45:07.666Z,29.02
2022-08-16T13:47:10.470Z,29.16
2022-08-16T13:49:11.938Z,28.71
2022-08-16T13:51:17.753Z,28.85
2022-08-16T13:53:24.142Z,29.37
2022-08-16T13:55:26.899Z,29.55
2022-08-16T13:58:35.167Z,29.57
2022-08-16T13:59:52.727Z,29.39
2022-08-16T14:02:02.646Z,29.43
2022-08-16T14:04:05.484Z,29.58
2022-08-16T14:06:11.205Z,29.28
2022-08-16T14:08:13.169Z,29.60
2022-08-16T14:10:16.933Z,29.78
2022-08-16T14:12:20.769Z,29.70
2022-08-16T14:14:28.751Z,29.44
2022-08-16T14:16:34.289Z,29.54
2022-08-16T14:18:36.326Z,29.88
2022-08-16T14:20:38.304Z,29.58
2022-08-16T14:22:42.662Z,29.12
2022-08-16T14:24:51.299Z,29.32
2022-08-16T14:26:53.004Z,29.38
2022-08-16T14:28:55.553Z,29.21
2022-08-16T14:31:03.046Z,29.46
2022-08-16T14:33:05.234Z,29.21
2022-08-16T14:35:15.644Z,29.56
2022-08-16T14:37:17.454Z,29.29
2022-08-16T14:39:21.917Z,29.19
2022-08-16T14:41:23.907Z,29.39
2022-08-16T14:43:25.939Z,29.30
2022-08-16T14:45:31.746Z,29.35
2022-08-16T14:47:37.039Z,29.40
2022-08-16T14:49:40.520Z,29.52
2022-08-16T14:51:46.180Z,29.39
2022-08-16T14:53:49.756Z,29.27
2022-08-16T14:55:54.593Z,29.32
2022-08-16T14:57:56.282Z,29.71
2022-08-16T15:00:01.984Z,29.64
2022-08-16T15:02:17.245Z,29.96
2022-08-16T15:04:47.904Z,29.84
2022-08-16T15:06:50.172Z,29.75
2022-08-16T15:08:51.765Z,29.82
2022-08-16T15:10:53.348Z,29.89
2022-08-16T15:12:56.360Z,29.96
2022-08-16T15:14:59.622Z,30.40
2022-08-16T15:17:02.239Z,30.03
2022-08-16T15:19:05.277Z,29.98
2022-08-16T15:21:08.717Z,29.83
2022-08-16T15:23:11.044Z,29.97
2022-08-16T15:25:17.813Z,30.04
2022-08-16T15:27:19.444Z,29.83
2022-08-16T15:29:20.946Z,29.84
2022-08-16T15:31:26.446Z,29.71
2022-08-16T15:33:28.130Z,29.88
2022-08-16T15:35:30.298Z,29.94
2022-08-16T15:37:42.638Z,29.88
2022-08-16T15:39:48.572Z,29.68
2022-08-16T15:42:01.008Z,30.00
2022-08-16T15:44:10.239Z,29.57
2022-08-16T15:46:54.072Z,29.59
2022-08-16T15:48:46.361Z,29.56
2022-08-16T15:50:48.900Z,29.51
2022-08-16T15:52:52.006Z,29.68
2022-08-16T15:54:55.464Z,29.52
2022-08-16T15:57:05.940Z,29.73
2022-08-16T15:59:13.409Z,29.58
2022-08-16T16:01:19.563Z,29.62
2022-08-16T16:03:27.405Z,29.72
2022-08-16T16:05:29.600Z,29.92
2022-08-16T16:07:33.272Z,29.78
2022-08-16T16:09:37.315Z,29.84
2022-08-16T16:11:39.154Z,29.78
2022-08-16T16:13:43.334Z,29.71
2022-08-16T16:15:51.184Z,30.11
2022-08-16T16:17:54.387Z,29.90
2022-08-16T16:19:55.969Z,29.76
2022-08-16T16:21:58.238Z,29.76
2022-08-16T16:24:21.020Z,29.83
2022-08-16T16:26:22.516Z,29.61
2022-08-16T16:29:06.761Z,29.88
2022-08-16T16:30:54.852Z,29.82
2022-08-16T16:32:59.236Z,29.53
2022-08-16T16:35:06.188Z,29.79
2022-08-16T16:37:10.047Z,29.83
2022-08-16T16:39:11.890Z,29.85
2022-08-16T16:41:17.689Z,29.98
2022-08-16T16:43:19.299Z,29.89
2022-08-16T16:45:34.603Z,29.76
2022-08-16T16:47:41.664Z,29.63
2022-08-16T16:49:43.649Z,29.86
2022-08-16T16:51:49.791Z,30.15
2022-08-16T16:53:56.175Z,29.89
2022-08-16T16:55:58.061Z,29.76
2022-08-16T16:58:29.042Z,29.95
2022-08-16T17:00:38.938Z,30.25
2022-08-16T17:02:49.725Z,30.10
2022-08-16T17:04:55.698Z,29.92
2022-08-16T17:06:58.093Z,29.66
2022-08-16T17:09:01.627Z,30.21
2022-08-16T17:11:03.651Z,30.44
2022-08-16T17:13:06.786Z,29.96
2022-08-16T17:15:08.889Z,30.66
2022-08-16T17:17:11.692Z,30.63
2022-08-16T17:19:22.054Z,30.24
2022-08-16T17:21:27.204Z,30.51
2022-08-16T17:23:59.135Z,30.35
2022-08-16T17:25:52.516Z,30.26
2022-08-16T17:27:54.190Z,30.78
2022-08-16T17:29:58.380Z,30.27
2022-08-16T17:34:28.844Z,30.20
2022-08-16T17:36:36.343Z,30.57
2022-08-16T17:38:44.744Z,30.44
2022-08-16T17:39:27.057Z,30.32
2022-08-16T17:40:58.794Z,30.54
2022-08-16T17:43:01.711Z,30.40
2022-08-16T17:45:03.910Z,30.78
2022-08-16T17:47:05.631Z,30.70
2022-08-16T17:49:07.620Z,30.68
2022-08-16T17:51:09.302Z,30.43
2022-08-16T17:53:11.866Z,30.93
2022-08-16T17:55:20.944Z,30.62
2022-08-16T17:57:22.461Z,30.89
2022-08-16T17:59:26.520Z,30.69
2022-08-16T18:01:28.881Z,30.85
2022-08-16T18:04:06.741Z,30.91
2022-08-16T18:05:59.262Z,30.83
2022-08-16T18:08:00.884Z,31.43
2022-08-16T18:10:03.013Z,30.95
2022-08-16T18:12:44.906Z,31.60
2022-08-16T18:14:51.968Z,31.62
2022-08-16T18:16:54.727Z,31.30
2022-08-16T18:18:57.028Z,31.52
2022-08-16T18:21:17.555Z,31.69
2022-08-16T18:23:24.684Z,31.25
2022-08-16T18:25:26.724Z,31.62
2022-08-16T18:27:29.935Z,31.90
2022-08-16T18:29:31.542Z,31.66
2022-08-16T18:31:33.959Z,32.08
2022-08-16T18:33:43.105Z,32.31
2022-08-16T18:35:45.943Z,32.73
2022-08-16T18:37:48.127Z,32.64
2022-08-16T18:39:50.104Z,32.81
2022-08-16T18:41:54.606Z,32.51
2022-08-16T18:44:25.076Z,32.97
2022-08-16T18:46:18.154Z,32.79
2022-08-16T18:48:22.558Z,32.95
2022-08-16T18:50:24.631Z,32.92
2022-08-16T18:52:26.248Z,32.86
2022-08-16T18:54:30.868Z,33.22
2022-08-16T18:56:55.229Z,32.91
2022-08-16T18:58:54.262Z,33.13
2022-08-16T19:00:57.409Z,33.30
2022-08-16T19:03:08.779Z,33.38
2022-08-16T19:05:23.129Z,33.13
2022-08-16T19:07:30.631Z,33.37
2022-08-16T19:09:33.162Z,33.31
2022-08-16T19:11:35.225Z,33.57
2022-08-16T19:13:36.924Z,33.87
2022-08-16T19:15:41.098Z,33.51
2022-08-16T19:17:44.889Z,33.71
2022-08-16T19:19:46.503Z,33.67
2022-08-16T19:21:48.069Z,33.78
2022-08-16T19:23:49.618Z,34.05
2022-08-16T19:26:00.356Z,34.24
2022-08-16T19:28:01.974Z,33.82
2022-08-16T19:30:09.150Z,34.19
2022-08-16T19:32:19.723Z,34.17
2022-08-16T19:34:21.465Z,34.31
2022-08-16T19:36:32.172Z,34.27
2022-08-16T19:38:37.846Z,34.07
2022-08-16T19:40:39.452Z,34.00
2022-08-16T19:42:46.168Z,34.33
2022-08-16T19:44:50.497Z,34.44
2022-08-16T19:46:52.056Z,34.72
2022-08-16T19:48:53.582Z,34.67
2022-08-16T19:50:55.074Z,34.80
2022-08-16T19:53:02.243Z,34.93
2022-08-16T19:55:19.384Z,34.78
2022-08-16T19:57:25.437Z,35.09
2022-08-16T19:59:39.731Z,35.01
2022-08-16T20:01:43.967Z,34.98
2022-08-16T20:03:45.550Z,35.29
2022-08-16T20:05:50.922Z,35.41
2022-08-16T20:07:54.930Z,35.45
2022-08-16T20:10:01.944Z,35.37
2022-08-16T20:12:14.142Z,35.78
2022-08-16T20:14:24.296Z,35.76
2022-08-16T20:16:27.695Z,35.67
2022-08-16T20:18:29.308Z,35.84
2022-08-16T20:20:30.882Z,35.98
2022-08-16T20:22:52.888Z,35.75
2022-08-16T20:24:56.921Z,36.06
2022-08-16T20:26:58.920Z,36.33
2022-08-16T20:29:01.592Z,36.16
2022-08-16T20:31:03.153Z,36.68
2022-08-16T20:33:13.379Z,36.49
2022-08-16T20:35:22.079Z,36.58
2022-08-16T20:37:23.772Z,36.68
2022-08-16T20:39:25.372Z,36.73
2022-08-16T20:41:29.269Z,36.78
2022-08-16T20:43:30.777Z,36.86
2022-08-16T20:45:32.486Z,36.83
2022-08-16T20:47:34.005Z,37.04
2022-08-16T20:49:36.709Z,36.91
2022-08-16T20:51:49.492Z,37.05
2022-08-16T20:53:52.605Z,37.32
2022-08-16T20:55:54.593Z,37.46
2022-08-16T20:57:56.478Z,37.06
2022-08-16T20:59:58.099Z,37.45
2022-08-16T21:01:59.817Z,37.42
2022-08-16T21:04:01.481Z,37.49
2022-08-16T21:06:04.365Z,37.68
2022-08-16T21:08:29.391Z,37.39
2022-08-16T21:10:27.833Z,37.85
2022-08-16T21:12:33.850Z,37.82
2022-08-16T21:14:39.861Z,37.81
2022-08-16T21:16:41.398Z,38.36
2022-08-16T21:18:43.137Z,38.41
2022-08-16T21:20:44.794Z,38.43
2022-08-16T21:22:58.009Z,38.69
2022-08-16T21:25:00.111Z,38.12
2022-08-16T21:27:02.745Z,38.46
2022-08-16T21:29:05.009Z,38.17
2022-08-16T21:31:10.983Z,38.36
2022-08-16T21:33:15.217Z,38.37
2022-08-16T21:35:19.150Z,38.16
2022-08-16T21:37:20.684Z,38.22
2022-08-16T21:39:22.149Z,38.73
2022-08-16T21:41:23.788Z,38.40
2022-08-16T21:43:27.507Z,38.40
2022-08-16T21:45:29.125Z,38.36
2022-08-16T21:47:30.624Z,39.04
2022-08-16T21:49:32.181Z,39.05
2022-08-16T21:51:34.685Z,38.84
2022-08-16T21:53:37.663Z,38.74
2022-08-16T21:55:41.644Z,39.15
2022-08-16T21:57:43.135Z,38.75
2022-08-16T21:59:44.686Z,39.23
2022-08-16T22:01:46.825Z,39.41
2022-08-16T22:03:49.070Z,39.08
2022-08-16T22:06:12.219Z,39.16
2022-08-16T22:08:16.976Z,39.34
2022-08-16T22:11:05.152Z,39.40
2022-08-16T22:12:41.107Z,39.62
2022-08-16T22:14:43.436Z,39.56
2022-08-16T22:16:45.264Z,40.13
2022-08-16T22:18:52.443Z,39.88
2022-08-16T22:20:54.572Z,39.89
2022-08-16T22:23:10.671Z,40.75
2022-08-16T22:25:14.394Z,40.51
2022-08-16T22:27:15.951Z,40.40
2022-08-16T22:29:17.719Z,40.51
2022-08-16T22:31:19.359Z,40.44
2022-08-16T22:33:26.264Z,40.29
2022-08-16T22:35:28.009Z,40.87
2022-08-16T22:37:29.622Z,40.78
2022-08-16T22:39:31.421Z,40.99
2022-08-16T22:41:34.619Z,40.94
2022-08-16T22:43:36.228Z,40.91
2022-08-16T22:45:38.227Z,41.15
2022-08-16T22:47:39.730Z,40.81
2022-08-16T22:49:41.423Z,40.92
2022-08-16T22:51:43.776Z,40.96
2022-08-16T22:53:45.589Z,41.05
2022-08-16T22:55:47.334Z,40.87
2022-08-16T22:57:49.662Z,41.37
2022-08-16T22:59:52.606Z,41.40
2022-08-16T23:01:55.302Z,41.37
2022-08-16T23:03:57.420Z,41.51
2022-08-16T23:06:02.467Z,41.30
2022-08-16T23:08:06.179Z,41.57
2022-08-16T23:10:08.158Z,41.14
2022-08-16T23:12:09.873Z,41.48
2022-08-16T23:14:11.391Z,41.40
2022-08-16T23:16:13.591Z,41.93
2022-08-16T23:18:16.176Z,41.67
2022-08-16T23:20:20.627Z,41.79
2022-08-16T23:22:24.643Z,42.08
2022-08-16T23:24:27.672Z,42.01
2022-08-16T23:26:44.305Z,42.13
2022-08-16T23:28:47.089Z,42.04
2022-08-16T23:30:50.239Z,42.17
2022-08-16T23:32:54.930Z,42.24
2022-08-16T23:34:56.549Z,42.46
2022-08-16T23:37:00.038Z,42.42
2022-08-16T23:39:01.748Z,42.44
2022-08-16T23:41:05.817Z,42.47
2022-08-16T23:43:13.714Z,42.74
2022-08-16T23:45:17.728Z,42.80
2022-08-16T23:47:19.196Z,42.66
2022-08-16T23:49:56.239Z,43.00
2022-08-16T23:51:43.207Z,43.16
2022-08-16T23:53:45.670Z,42.66
2022-08-16T23:55:49.838Z,42.82
2022-08-16T23:57:52.697Z,42.81
2022-08-16T23:59:54.678Z,43.03
